Delta, Missouri
Current Conditions -  °F | °C
As of 11:06 AM on Saturday 20 Dec 2014 (Local Time) from KCGI Reporting Station
Overcast Overcast  
Wind Chill: 36°   Ceiling: 3000
Heat Index: 39°   Visibility: 10mi
Dew Point: 31°   Wind: 5mph
Humidity: 73%   Direction: 190°S
Pressure: 30.3"   Gusts: NA
Location:  37.2°N, 89.74°W
Report Text: KCGI 201706Z 19004KT 10SM OVC030 04/M01 A3030 RMK AO2 T00391006
Loading
Personal Weather Stations






























Interactive Weather Map New forecast layout! Learn more

10-Day Weather Forecast

Advertisements
Track Severe Weather on mobile